Time;durP1;ratioP1;P1;durP2;ratioP2;P2;SDS_P1;SDS_P2;PMS_P1;PMS_P2;Temp;Humidity;BMP_temperature;BMP_pressure;BME280_temperature;BME280_humidity;BME280_pressure;Samples;Min_cycle;Max_cycle;Signal;HPM_P1;HPM_P2
2022/07/22 00:02:15;;;;;;;1.80;1.70;;;27.10;78.10;;;;;;5075973;28;20441;-93
2022/07/22 00:04:42;;;;;;;1.97;1.80;;;27.10;78.10;;;;;;5077472;28;20452;-94
2022/07/22 00:07:09;;;;;;;1.47;1.37;;;27.10;78.10;;;;;;5077231;28;20526;-86
2022/07/22 00:09:37;;;;;;;1.50;1.40;;;27.10;78.00;;;;;;5076911;28;20470;-86
2022/07/22 00:12:05;;;;;;;1.70;1.60;;;27.10;78.10;;;;;;5077198;28;20437;-94
2022/07/22 00:14:32;;;;;;;1.30;1.20;;;27.10;78.00;;;;;;5076925;28;20855;-93
2022/07/22 00:16:59;;;;;;;1.60;1.50;;;27.10;78.00;;;;;;5076869;28;20483;-86
2022/07/22 00:19:26;;;;;;;1.57;1.47;;;27.10;78.00;;;;;;5076921;28;20531;-93
2022/07/22 00:21:53;;;;;;;1.70;1.60;;;27.10;78.00;;;;;;5076661;28;21015;-94
2022/07/22 00:24:20;;;;;;;1.67;1.57;;;27.10;77.90;;;;;;5076722;28;20523;-92
2022/07/22 00:26:48;;;;;;;1.90;1.80;;;27.10;77.90;;;;;;5076457;28;20576;-93
2022/07/22 00:29:15;;;;;;;1.53;1.43;;;27.10;77.90;;;;;;5076646;28;21009;-94
2022/07/22 00:31:42;;;;;;;2.30;2.10;;;27.10;77.80;;;;;;5076430;28;20873;-86
2022/07/22 00:34:09;;;;;;;1.87;1.60;;;27.10;77.80;;;;;;5076379;28;20455;-86
2022/07/22 00:36:36;;;;;;;1.60;1.50;;;27.10;77.80;;;;;;5076433;28;20564;-93
2022/07/22 00:39:04;;;;;;;1.40;1.30;;;27.10;77.90;;;;;;5076153;28;20473;-86
2022/07/22 00:41:31;;;;;;;1.43;1.33;;;27.10;77.80;;;;;;5076028;28;20432;-86
2022/07/22 00:44:04;;;;;;;1.47;1.37;;;27.10;77.80;;;;;;5076127;28;20449;-87
2022/07/22 00:46:32;;;;;;;1.40;1.30;;;27.10;77.80;;;;;;5076570;28;20469;-86
2022/07/22 00:48:59;;;;;;;1.60;1.50;;;27.10;77.80;;;;;;5076708;28;20536;-86
2022/07/22 00:51:28;;;;;;;1.80;1.70;;;27.10;77.70;;;;;;5076010;28;20540;-96
2022/07/22 00:53:57;;;;;;;2.00;1.90;;;27.10;77.80;;;;;;5076851;28;20519;-94
2022/07/22 00:56:25;;;;;;;1.67;1.57;;;27.10;77.70;;;;;;5076598;28;20441;-95
2022/07/22 00:58:53;;;;;;;1.47;1.30;;;27.10;77.70;;;;;;5076065;28;20446;-87
2022/07/22 01:01:21;;;;;;;1.40;1.30;;;27.10;77.60;;;;;;5075835;28;20467;-88
2022/07/22 01:03:48;;;;;;;1.57;1.47;;;27.10;77.60;;;;;;5075972;28;20437;-87
2022/07/22 01:06:15;;;;;;;1.40;1.30;;;27.10;77.70;;;;;;5075865;28;20461;-94
2022/07/22 01:08:43;;;;;;;1.33;1.23;;;27.10;77.60;;;;;;5075717;28;20479;-87
2022/07/22 01:11:11;;;;;;;1.60;1.50;;;27.10;77.60;;;;;;5075682;28;20536;-86
2022/07/22 01:13:38;;;;;;;1.40;1.30;;;27.10;77.60;;;;;;5074941;28;20445;-87
2022/07/22 01:16:07;;;;;;;1.57;1.47;;;27.10;77.60;;;;;;5075788;28;20452;-95
2022/07/22 01:18:36;;;;;;;1.40;1.30;;;27.10;77.60;;;;;;5075538;28;20532;-87
2022/07/22 01:21:04;;;;;;;1.40;1.13;;;27.10;77.60;;;;;;5075216;28;20809;-86
2022/07/22 01:23:31;;;;;;;1.27;1.17;;;27.10;77.60;;;;;;5075441;28;20469;-86
2022/07/22 01:25:58;;;;;;;2.07;1.60;;;27.10;77.50;;;;;;5075468;28;20467;-86
2022/07/22 01:28:25;;;;;;;1.33;1.23;;;27.10;77.60;;;;;;5075418;28;20563;-86
2022/07/22 01:30:52;;;;;;;1.30;1.20;;;27.10;77.50;;;;;;5075088;28;20468;-87
2022/07/22 01:33:21;;;;;;;1.50;1.40;;;27.10;77.50;;;;;;5075088;28;20528;-87
2022/07/22 01:35:48;;;;;;;1.50;1.40;;;27.10;77.60;;;;;;5075017;28;20508;-86
2022/07/22 01:38:17;;;;;;;1.30;1.20;;;27.10;77.50;;;;;;5075220;28;20444;-87
2022/07/22 01:40:44;;;;;;;1.90;1.43;;;27.10;77.50;;;;;;5074956;28;20533;-86
2022/07/22 01:43:15;;;;;;;1.50;1.40;;;27.00;77.40;;;;;;5075073;28;20445;-86
2022/07/22 01:45:42;;;;;;;2.27;1.30;;;27.10;77.50;;;;;;5075185;28;20440;-87
2022/07/22 01:48:09;;;;;;;1.20;1.10;;;27.10;77.50;;;;;;5074961;28;20516;-86
2022/07/22 01:50:36;;;;;;;1.30;1.20;;;27.10;77.40;;;;;;5074850;28;20428;-95
2022/07/22 01:53:03;;;;;;;1.47;1.37;;;27.10;77.40;;;;;;5074810;28;20440;-86
2022/07/22 01:55:31;;;;;;;1.40;1.30;;;27.00;77.30;;;;;;5074680;28;20787;-86
2022/07/22 01:57:58;;;;;;;1.30;1.20;;;27.10;77.40;;;;;;5074977;28;20843;-86
2022/07/22 02:00:25;;;;;;;1.20;1.10;;;27.00;78.10;;;;;;5074565;28;20443;-86
2022/07/22 02:02:52;;;;;;;1.17;0.90;;;27.00;77.30;;;;;;5082501;28;20505;-86
2022/07/22 02:05:19;;;;;;;1.60;1.50;;;27.00;77.30;;;;;;5082851;28;21046;-86
2022/07/22 02:07:46;;;;;;;2.03;1.00;;;27.00;78.10;;;;;;5083304;28;20516;-84
2022/07/22 02:10:13;;;;;;;1.43;1.33;;;27.00;77.30;;;;;;5076551;28;20563;-86
2022/07/22 02:12:41;;;;;;;1.23;1.13;;;27.00;77.30;;;;;;5075601;28;20779;-86
2022/07/22 02:15:09;;;;;;;1.30;1.10;;;27.00;77.20;;;;;;5075856;28;20495;-95
2022/07/22 02:17:36;;;;;;;1.13;1.03;;;27.00;77.20;;;;;;5074596;28;21001;-93
2022/07/22 02:20:05;;;;;;;1.67;1.57;;;27.00;77.20;;;;;;5074383;28;20494;-92
2022/07/22 02:22:31;;;;;;;1.30;1.20;;;27.00;77.20;;;;;;5074172;28;20543;-86
2022/07/22 02:24:58;;;;;;;1.40;1.30;;;27.00;77.20;;;;;;5073445;28;20492;-90
2022/07/22 02:27:25;;;;;;;1.00;0.90;;;27.00;77.20;;;;;;5074217;28;20534;-94
2022/07/22 02:29:53;;;;;;;1.50;1.40;;;27.10;77.20;;;;;;5074806;28;20498;-87
2022/07/22 02:32:20;;;;;;;1.30;1.20;;;27.00;77.10;;;;;;5074062;28;20476;-88
2022/07/22 02:34:54;;;;;;;1.17;1.07;;;27.00;77.00;;;;;;5074198;28;20533;-95
2022/07/22 02:37:21;;;;;;;1.20;1.10;;;27.10;77.10;;;;;;5074141;28;20528;-93
2022/07/22 02:39:48;;;;;;;1.30;1.20;;;27.00;77.00;;;;;;5074173;28;20864;-86
2022/07/22 02:42:15;;;;;;;1.30;1.20;;;27.00;77.00;;;;;;5074188;28;20437;-86
2022/07/22 02:44:42;;;;;;;1.10;1.00;;;27.00;77.00;;;;;;5074333;28;20475;-87
2022/07/22 02:47:10;;;;;;;1.30;1.20;;;27.00;77.00;;;;;;5074038;28;20560;-86
2022/07/22 02:49:37;;;;;;;1.30;1.20;;;27.00;77.80;;;;;;5073812;28;21014;-86
2022/07/22 02:52:04;;;;;;;1.20;1.10;;;27.00;76.90;;;;;;5073937;28;20472;-86
2022/07/22 02:54:31;;;;;;;1.23;1.13;;;27.00;76.90;;;;;;5073798;28;20447;-86
2022/07/22 02:56:57;;;;;;;1.37;1.27;;;27.00;76.90;;;;;;5073677;28;20441;-87
2022/07/22 02:59:24;;;;;;;1.10;0.90;;;27.00;76.90;;;;;;5073656;28;21065;-91
2022/07/22 03:01:51;;;;;;;1.40;1.30;;;27.00;76.80;;;;;;5073934;28;20437;-87
2022/07/22 03:04:19;;;;;;;1.40;1.00;;;27.00;76.90;;;;;;5073921;28;20523;-86
2022/07/22 03:06:46;;;;;;;1.50;1.07;;;27.00;76.80;;;;;;5073716;28;20457;-86
2022/07/22 03:09:13;;;;;;;1.40;1.30;;;27.00;76.80;;;;;;5073920;28;20445;-86
2022/07/22 03:11:40;;;;;;;1.60;1.27;;;27.00;77.10;;;;;;5073804;28;20473;-87
2022/07/22 03:14:07;;;;;;;1.07;0.97;;;27.00;76.80;;;;;;5073825;28;20443;-94
2022/07/22 03:16:34;;;;;;;1.27;1.17;;;27.00;76.80;;;;;;5073891;28;20453;-94
2022/07/22 03:19:00;;;;;;;1.30;1.20;;;27.00;76.80;;;;;;5073830;28;20437;-87
2022/07/22 03:21:29;;;;;;;1.50;1.30;;;26.90;76.70;;;;;;5073756;28;20536;-94
2022/07/22 03:23:56;;;;;;;1.37;1.07;;;27.00;77.40;;;;;;5073297;28;20507;-86
2022/07/22 03:26:23;;;;;;;1.27;1.17;;;27.00;76.80;;;;;;5073630;28;20478;-95
2022/07/22 03:28:50;;;;;;;1.17;1.07;;;27.00;76.80;;;;;;5073647;28;20547;-86
2022/07/22 03:31:17;;;;;;;1.00;0.80;;;27.00;76.70;;;;;;5073699;28;20476;-95
2022/07/22 03:33:44;;;;;;;1.03;0.93;;;27.00;76.70;;;;;;5074425;28;20872;-86
2022/07/22 03:36:10;;;;;;;1.10;1.00;;;27.00;76.70;;;;;;5075938;28;20552;-95
2022/07/22 03:38:39;;;;;;;1.53;1.30;;;27.00;77.60;;;;;;5077462;28;20441;-86
2022/07/22 03:41:05;;;;;;;1.97;1.00;;;27.00;76.60;;;;;;5077352;28;20803;-86
2022/07/22 03:43:32;;;;;;;1.20;1.10;;;27.00;76.70;;;;;;5077580;28;20445;-86
2022/07/22 03:45:59;;;;;;;1.20;1.10;;;26.90;76.60;;;;;;5077696;28;20444;-87
2022/07/22 03:48:26;;;;;;;1.50;1.03;;;26.90;76.50;;;;;;5077620;28;20494;-95
2022/07/22 03:50:53;;;;;;;1.70;1.10;;;27.00;76.60;;;;;;5077072;28;20437;-94
2022/07/22 03:53:21;;;;;;;1.10;0.97;;;27.00;76.60;;;;;;5076979;28;20528;-88
2022/07/22 03:55:49;;;;;;;1.03;0.93;;;27.00;76.50;;;;;;5077586;28;20452;-95
2022/07/22 03:58:17;;;;;;;1.20;1.00;;;27.00;77.40;;;;;;5077279;28;20528;-87
2022/07/22 04:00:44;;;;;;;1.10;1.00;;;27.00;76.50;;;;;;5076989;28;20433;-86
2022/07/22 04:03:11;;;;;;;1.23;1.13;;;27.00;76.50;;;;;;5077100;28;20868;-87
2022/07/22 04:05:38;;;;;;;1.20;1.10;;;27.00;76.50;;;;;;5076745;28;20457;-86
2022/07/22 04:08:05;;;;;;;1.10;1.00;;;27.00;76.40;;;;;;5076721;28;21081;-86
2022/07/22 04:10:33;;;;;;;1.23;1.13;;;27.00;76.40;;;;;;5076542;28;20511;-86
2022/07/22 04:13:01;;;;;;;1.00;0.90;;;27.00;76.40;;;;;;5068904;28;20477;-86
2022/07/22 04:15:28;;;;;;;1.10;1.00;;;27.00;76.40;;;;;;5077151;28;20472;-87
2022/07/22 04:17:55;;;;;;;1.30;1.20;;;26.90;76.50;;;;;;5077015;28;20790;-86
2022/07/22 04:20:21;;;;;;;1.03;0.93;;;27.00;76.60;;;;;;5086486;28;20443;-85
2022/07/22 04:22:48;;;;;;;1.00;0.80;;;26.90;76.40;;;;;;5085566;28;20444;-86
2022/07/22 04:25:15;;;;;;;1.07;0.90;;;26.90;76.40;;;;;;5088001;28;20459;-86
2022/07/22 04:27:42;;;;;;;1.10;1.00;;;27.00;76.50;;;;;;5076905;28;20483;-87
2022/07/22 04:30:11;;;;;;;1.10;1.00;;;26.90;76.40;;;;;;5076555;28;20544;-95
2022/07/22 04:32:38;;;;;;;1.23;1.13;;;27.00;76.50;;;;;;5076558;28;20441;-86
2022/07/22 04:35:06;;;;;;;1.00;0.80;;;26.90;76.40;;;;;;5076423;28;20812;-94
2022/07/22 04:37:33;;;;;;;1.20;1.10;;;26.90;76.30;;;;;;5076538;28;20480;-86
2022/07/22 04:40:00;;;;;;;1.20;1.10;;;26.90;76.30;;;;;;5076505;28;20445;-87
2022/07/22 04:42:27;;;;;;;1.20;1.10;;;26.90;76.40;;;;;;5076179;28;20532;-86
2022/07/22 04:44:54;;;;;;;1.17;1.07;;;27.00;76.50;;;;;;5076115;28;20532;-86
2022/07/22 04:47:22;;;;;;;1.20;1.00;;;26.90;76.40;;;;;;5075496;28;20543;-93
2022/07/22 04:49:49;;;;;;;2.23;1.30;;;27.00;76.50;;;;;;5056084;28;20465;-86
2022/07/22 04:52:16;;;;;;;1.00;0.90;;;27.00;76.50;;;;;;5056235;28;20438;-86
2022/07/22 04:54:43;;;;;;;1.30;0.90;;;26.90;76.30;;;;;;5056168;28;20541;-86
2022/07/22 04:57:10;;;;;;;1.00;0.90;;;26.90;76.30;;;;;;5056202;28;20524;-93
2022/07/22 04:59:37;;;;;;;1.13;0.90;;;27.10;76.50;;;;;;5055819;28;20434;-94
2022/07/22 05:02:04;;;;;;;1.10;1.00;;;27.00;76.30;;;;;;5056214;28;20448;-94
2022/07/22 05:04:32;;;;;;;1.00;0.90;;;26.90;76.20;;;;;;5055585;28;20968;-90
2022/07/22 05:06:59;;;;;;;1.07;0.87;;;26.90;76.20;;;;;;5055922;28;20453;-86
2022/07/22 05:09:26;;;;;;;1.20;1.10;;;27.00;76.30;;;;;;5055618;28;20524;-95
2022/07/22 05:11:52;;;;;;;1.10;1.00;;;26.90;76.20;;;;;;5055535;28;20445;-86
2022/07/22 05:14:20;;;;;;;1.37;1.03;;;27.00;76.30;;;;;;5055304;28;20988;-86
2022/07/22 05:16:46;;;;;;;1.13;1.03;;;26.90;76.20;;;;;;5055430;28;20448;-94
2022/07/22 05:19:13;;;;;;;1.00;0.80;;;27.00;76.20;;;;;;5055495;28;20485;-94
2022/07/22 05:21:42;;;;;;;1.20;1.07;;;27.00;76.30;;;;;;5070770;28;20440;-86
2022/07/22 05:24:09;;;;;;;1.53;0.90;;;27.00;76.20;;;;;;5075195;28;20440;-85
2022/07/22 05:26:35;;;;;;;1.10;0.90;;;26.90;76.10;;;;;;5075088;28;20441;-95
2022/07/22 05:29:02;;;;;;;1.33;0.90;;;27.00;76.20;;;;;;5075827;28;20484;-94
2022/07/22 05:31:29;;;;;;;0.97;0.87;;;26.90;76.10;;;;;;5075712;28;20445;-94
2022/07/22 05:33:56;;;;;;;1.10;1.00;;;27.00;76.20;;;;;;5075615;28;20433;-95
2022/07/22 05:36:23;;;;;;;0.93;0.80;;;27.00;76.20;;;;;;5075779;28;20548;-94
2022/07/22 05:38:52;;;;;;;1.20;1.10;;;27.00;76.10;;;;;;5076012;28;20465;-95
2022/07/22 05:41:19;;;;;;;1.10;1.00;;;27.00;76.10;;;;;;5075266;28;20515;-94
2022/07/22 05:43:45;;;;;;;1.00;0.90;;;27.00;76.10;;;;;;5074668;28;20457;-95
2022/07/22 05:46:13;;;;;;;1.20;1.10;;;27.00;76.00;;;;;;5075034;28;20495;-84
2022/07/22 05:48:40;;;;;;;1.20;1.00;;;27.00;75.80;;;;;;5075162;28;20483;-94
2022/07/22 05:51:12;;;;;;;1.00;0.90;;;27.00;75.70;;;;;;5074666;28;20936;-86
2022/07/22 05:53:39;;;;;;;1.67;1.27;;;27.00;76.00;;;;;;5074148;28;20441;-88
2022/07/22 05:56:10;;;;;;;1.10;1.00;;;27.00;75.90;;;;;;5073494;28;20969;-81
2022/07/22 05:58:37;;;;;;;1.30;0.97;;;27.00;75.80;;;;;;5073778;28;20441;-82
2022/07/22 06:01:04;;;;;;;1.00;0.90;;;27.00;75.80;;;;;;5074421;28;20437;-82
2022/07/22 06:03:31;;;;;;;2.23;1.13;;;27.00;76.10;;;;;;5074097;28;20440;-82
2022/07/22 06:05:58;;;;;;;5.00;1.00;;;27.00;76.00;;;;;;5074004;28;20457;-85
2022/07/22 06:08:25;;;;;;;2.30;1.40;;;27.00;75.90;;;;;;5073969;28;20476;-85
2022/07/22 06:58:38;;;;;;;3.87;1.93;;;26.30;72.50;;;;;;5039791;28;20466;-84
2022/07/22 07:01:05;;;;;;;3.73;1.53;;;26.30;73.30;;;;;;5051439;28;20466;-87
2022/07/22 07:03:33;;;;;;;3.43;1.40;;;26.30;73.70;;;;;;5048564;28;20531;-85
2022/07/22 07:06:00;;;;;;;6.67;1.40;;;26.30;73.80;;;;;;5055609;28;20830;-84
2022/07/22 07:08:27;;;;;;;2.20;1.20;;;26.30;73.60;;;;;;5073301;28;20559;-86
2022/07/22 07:10:54;;;;;;;2.83;1.80;;;26.30;73.70;;;;;;5089655;28;20482;-84
2022/07/22 07:13:26;;;;;;;1.97;1.40;;;26.30;73.30;;;;;;5093364;28;20471;-92
2022/07/22 07:42:56;;;;;;;6.13;1.83;;;25.40;74.50;;;;;;4991371;28;20420;-82
2022/07/22 07:45:23;;;;;;;2.33;1.90;;;25.40;74.70;;;;;;4991041;28;20456;-83
2022/07/22 07:47:50;;;;;;;2.80;1.77;;;25.40;74.40;;;;;;4991189;28;20444;-83
2022/07/22 07:50:17;;;;;;;5.20;1.80;;;25.40;73.70;;;;;;4991129;28;20510;-84
2022/07/22 07:52:47;;;;;;;3.30;1.90;;;25.30;73.90;;;;;;4991317;28;20476;-83
2022/07/22 07:55:15;;;;;;;1.77;1.67;;;25.40;73.90;;;;;;4991559;28;20943;-83
2022/07/22 07:57:43;;;;;;;22.63;2.70;;;25.30;74.60;;;;;;5026687;28;20534;-83
2022/07/22 08:00:12;;;;;;;2.67;2.03;;;25.40;75.30;;;;;;5010928;28;20440;-81
2022/07/22 08:02:40;;;;;;;6.80;2.63;;;25.40;75.20;;;;;;5016946;28;20442;-81
2022/07/22 08:05:08;;;;;;;3.83;3.53;;;25.30;75.00;;;;;;5028566;28;20554;-81
2022/07/22 08:07:35;;;;;;;3.23;2.77;;;25.40;74.40;;;;;;5029386;28;20526;-81
2022/07/22 08:10:03;;;;;;;3.40;3.13;;;25.40;73.80;;;;;;5059960;28;20531;-81
2022/07/22 08:12:29;;;;;;;3.50;3.10;;;25.30;73.80;;;;;;5072472;28;20469;-81
2022/07/22 08:14:56;;;;;;;3.77;2.60;;;25.30;73.70;;;;;;5072237;28;20921;-81
2022/07/22 08:17:25;;;;;;;3.80;2.90;;;25.40;74.60;;;;;;5072240;28;20527;-81
2022/07/22 08:19:51;;;;;;;4.27;3.93;;;25.30;73.80;;;;;;5072454;28;20441;-84
2022/07/22 08:22:18;;;;;;;5.23;4.53;;;25.30;74.00;;;;;;5073674;28;20504;-80
2022/07/22 08:24:45;;;;;;;4.60;4.20;;;25.30;74.00;;;;;;5075912;28;20523;-81
2022/07/22 08:27:12;;;;;;;10.40;3.30;;;25.20;74.50;;;;;;5075960;28;20528;-81
2022/07/22 08:29:39;;;;;;;4.40;3.30;;;25.30;75.20;;;;;;5075923;28;20834;-80
2022/07/22 08:32:06;;;;;;;6.10;4.07;;;25.30;75.30;;;;;;5075886;28;20484;-85
2022/07/22 08:34:35;;;;;;;5.60;3.47;;;25.30;74.50;;;;;;5075689;28;20535;-81
2022/07/22 08:37:02;;;;;;;3.33;3.10;;;25.30;74.20;;;;;;5075857;28;20436;-81
2022/07/22 08:39:29;;;;;;;5.73;3.53;;;25.30;74.30;;;;;;5075769;28;20937;-81
2022/07/22 08:41:57;;;;;;;10.13;3.50;;;25.30;74.40;;;;;;5075905;28;20527;-81
2022/07/22 08:44:24;;;;;;;5.17;3.60;;;25.30;74.30;;;;;;5076506;28;20437;-82
2022/07/22 08:46:51;;;;;;;7.20;4.70;;;25.20;74.00;;;;;;5076592;28;20453;-79
2022/07/22 08:49:18;;;;;;;5.77;4.23;;;25.20;73.90;;;;;;5075464;28;20508;-81
2022/07/22 08:51:46;;;;;;;4.73;3.70;;;25.20;74.30;;;;;;5075737;28;20855;-80
2022/07/22 08:54:13;;;;;;;4.83;4.43;;;25.20;74.60;;;;;;5075566;28;20531;-81
2022/07/22 08:56:42;;;;;;;5.20;4.30;;;25.20;74.70;;;;;;5075567;28;20441;-81
2022/07/22 08:59:09;;;;;;;8.37;5.40;;;25.20;75.20;;;;;;5075683;28;20444;-80
2022/07/22 09:01:36;;;;;;;7.80;7.00;;;25.20;74.90;;;;;;5075829;28;20449;-80
2022/07/22 09:04:04;;;;;;;7.17;5.97;;;25.20;73.80;;;;;;5074460;28;20437;-81
2022/07/22 09:06:33;;;;;;;5.43;5.03;;;25.10;73.70;;;;;;5074385;28;20954;-81
2022/07/22 09:09:03;;;;;;;6.10;5.53;;;25.10;74.10;;;;;;5066325;28;20515;-81
2022/07/22 09:11:31;;;;;;;6.57;5.97;;;25.10;74.70;;;;;;5074521;28;20601;-80
2022/07/22 09:14:00;;;;;;;5.93;5.43;;;25.10;73.90;;;;;;5074924;28;20447;-81
2022/07/22 09:16:40;;;;;;;5.30;4.90;;;25.20;74.50;;;;;;5075080;28;20544;-80
2022/07/22 09:19:07;;;;;;;7.13;6.53;;;25.20;75.10;;;;;;5075421;28;20437;-81
2022/07/22 09:21:36;;;;;;;7.23;6.03;;;25.20;76.70;;;;;;5075226;28;20448;-81
2022/07/22 09:24:05;;;;;;;6.87;6.27;;;25.20;75.20;;;;;;5074802;28;20452;-83
2022/07/22 09:26:33;;;;;;;6.47;5.87;;;25.20;75.30;;;;;;5075161;28;20850;-83
2022/07/22 09:29:00;;;;;;;7.93;5.73;;;25.40;75.40;;;;;;5075053;28;20506;-83
2022/07/22 09:31:30;;;;;;;6.00;5.50;;;25.40;75.20;;;;;;5074861;28;20890;-83
2022/07/22 09:33:57;;;;;;;6.13;5.57;;;25.50;75.00;;;;;;5054306;28;20445;-83
2022/07/22 09:36:25;;;;;;;5.87;5.37;;;25.60;75.00;;;;;;5071151;28;20833;-82
2022/07/22 09:38:52;;;;;;;5.93;5.30;;;25.60;74.50;;;;;;5069366;28;20524;-83
2022/07/22 09:41:21;;;;;;;5.20;4.70;;;25.70;74.20;;;;;;5074813;28;20464;-85
2022/07/22 09:43:49;;;;;;;5.63;5.20;;;25.80;74.20;;;;;;5074793;28;20524;-85
2022/07/22 09:46:17;;;;;;;6.23;5.83;;;25.90;74.10;;;;;;5074680;28;20890;-83
2022/07/22 09:48:44;;;;;;;5.37;4.70;;;25.90;73.60;;;;;;5074362;28;20476;-85
2022/07/22 09:51:11;;;;;;;5.30;4.80;;;25.90;73.10;;;;;;5074236;28;20532;-83
2022/07/22 09:53:38;;;;;;;6.57;5.90;;;26.00;72.90;;;;;;5074389;28;20447;-84
2022/07/22 09:56:07;;;;;;;7.73;5.47;;;26.00;72.80;;;;;;5074360;28;20437;-84
2022/07/22 09:58:35;;;;;;;5.47;4.20;;;26.10;73.00;;;;;;5074584;28;20488;-84
2022/07/22 10:01:05;;;;;;;4.50;4.17;;;26.10;72.80;;;;;;5074679;28;20464;-84
2022/07/22 10:03:36;;;;;;;5.30;4.90;;;26.20;73.10;;;;;;5074530;28;20516;-85
2022/07/22 10:06:04;;;;;;;4.70;4.30;;;26.20;73.20;;;;;;5075127;28;20827;-86
2022/07/22 10:08:33;;;;;;;5.90;4.43;;;26.20;73.40;;;;;;5074386;28;20487;-84
2022/07/22 10:11:02;;;;;;;4.43;3.70;;;26.20;73.50;;;;;;5073867;28;20911;-85
2022/07/22 10:13:30;;;;;;;6.43;5.90;;;26.20;73.50;;;;;;5074268;28;20520;-85
2022/07/22 10:16:00;;;;;;;7.03;6.43;;;26.30;73.50;;;;;;5074178;28;20525;-85
2022/07/22 10:18:29;;;;;;;8.87;8.07;;;26.40;73.00;;;;;;5074160;28;21011;-85
2022/07/22 10:21:04;;;;;;;8.47;7.47;;;26.40;72.30;;;;;;5073754;28;21212;-83
2022/07/22 10:23:30;;;;;;;7.97;7.27;;;26.30;71.90;;;;;;5073676;28;20445;-83
2022/07/22 10:25:59;;;;;;;7.77;6.93;;;26.30;72.50;;;;;;5073887;28;20527;-81
2022/07/22 10:28:28;;;;;;;7.17;6.60;;;26.30;72.10;;;;;;5073872;28;20437;-91
2022/07/22 10:31:08;;;;;;;13.40;7.60;;;26.30;72.20;;;;;;5074032;28;21090;-92
2022/07/22 10:36:32;;;;;;;6.57;5.93;;;26.30;72.20;;;;;;5072731;28;20500;-86
2022/07/22 10:39:08;;;;;;;9.60;6.43;;;26.30;72.10;;;;;;5073767;28;20445;-86
2022/07/22 10:41:55;;;;;;;11.07;6.33;;;26.30;72.70;;;;;;5073112;28;20533;-86
2022/07/22 10:44:49;;;;;;;9.77;8.77;;;26.30;73.00;;;;;;5073072;28;20871;-86
2022/07/22 10:47:16;;;;;;;9.77;8.57;;;26.20;73.20;;;;;;5073333;28;20468;-85
2022/07/22 10:49:44;;;;;;;8.47;7.67;;;26.20;72.30;;;;;;5073453;28;21007;-89
2022/07/22 10:52:16;;;;;;;8.77;8.07;;;26.20;72.50;;;;;;5073431;28;20453;-87
2022/07/22 10:55:16;;;;;;;9.47;8.60;;;26.20;72.90;;;;;;5073509;28;20936;-88
2022/07/22 10:57:43;;;;;;;10.80;8.80;;;26.30;72.90;;;;;;5073350;28;20473;-86
2022/07/22 11:00:10;;;;;;;9.40;8.53;;;26.20;73.00;;;;;;5073477;28;20536;-86
2022/07/22 11:02:39;;;;;;;11.53;7.70;;;26.20;73.40;;;;;;5072916;28;20443;-85
2022/07/22 11:05:08;;;;;;;9.33;8.53;;;26.20;73.30;;;;;;5073450;28;20523;-90
2022/07/22 11:07:41;;;;;;;9.17;8.37;;;26.20;72.70;;;;;;5073328;28;20440;-85
2022/07/22 11:10:12;;;;;;;8.67;7.97;;;26.20;72.40;;;;;;5073082;28;20547;-86
2022/07/22 11:12:39;;;;;;;7.93;7.13;;;26.20;72.70;;;;;;5073089;28;20452;-85
2022/07/22 11:15:07;;;;;;;8.93;7.00;;;26.20;72.60;;;;;;5072864;28;20531;-86
2022/07/22 11:17:35;;;;;;;8.10;7.40;;;26.20;72.70;;;;;;5072941;28;20536;-85
2022/07/22 11:20:03;;;;;;;10.17;7.50;;;26.20;72.90;;;;;;5072670;28;20466;-85
2022/07/22 11:22:32;;;;;;;8.27;7.20;;;26.20;72.70;;;;;;5072746;28;20449;-85
2022/07/22 11:25:01;;;;;;;8.10;7.20;;;26.30;72.90;;;;;;5072835;28;20532;-86
2022/07/22 11:27:28;;;;;;;7.57;6.87;;;26.30;73.30;;;;;;5073499;28;20863;-85
2022/07/22 11:29:56;;;;;;;7.43;6.70;;;26.30;73.20;;;;;;5072934;28;20987;-85
2022/07/22 11:32:24;;;;;;;8.53;7.40;;;26.30;73.40;;;;;;5073191;28;20478;-86
2022/07/22 11:34:51;;;;;;;8.73;7.80;;;26.30;72.80;;;;;;5072981;28;20461;-85
2022/07/22 11:37:19;;;;;;;9.20;8.30;;;26.40;72.50;;;;;;5072665;28;20531;-85
2022/07/22 11:39:48;;;;;;;8.87;7.43;;;26.40;72.70;;;;;;5073797;28;20531;-86
2022/07/22 11:42:14;;;;;;;9.57;8.00;;;26.30;73.70;;;;;;5072645;28;20952;-86
2022/07/22 11:44:41;;;;;;;8.43;7.13;;;26.30;73.20;;;;;;5073233;28;20437;-86
2022/07/22 11:47:10;;;;;;;7.00;6.40;;;26.40;73.40;;;;;;5072702;28;20477;-85
2022/07/22 11:49:39;;;;;;;7.50;6.20;;;26.40;73.30;;;;;;5072468;28;20504;-86
2022/07/22 11:52:11;;;;;;;6.70;6.00;;;26.40;73.20;;;;;;5072817;28;20471;-86
2022/07/22 11:54:39;;;;;;;8.57;6.43;;;26.50;73.30;;;;;;5072772;28;20456;-90
2022/07/22 11:57:08;;;;;;;6.70;6.20;;;26.40;73.10;;;;;;5071232;28;20889;-88
2022/07/22 11:59:35;;;;;;;7.80;7.10;;;26.40;73.30;;;;;;5077024;28;20462;-88
2022/07/22 12:02:04;;;;;;;7.57;6.57;;;26.50;73.90;;;;;;5076253;28;20433;-90
2022/07/22 12:04:32;;;;;;;6.33;5.83;;;26.50;74.00;;;;;;5076407;28;20531;-85
2022/07/22 12:07:01;;;;;;;7.13;6.53;;;26.50;73.80;;;;;;5076582;28;20472;-88
2022/07/22 12:09:33;;;;;;;5.40;5.00;;;26.50;73.80;;;;;;5076206;28;20475;-85
2022/07/22 12:11:59;;;;;;;7.10;6.50;;;26.50;73.60;;;;;;5076612;28;20520;-89
2022/07/22 12:14:30;;;;;;;6.87;5.77;;;26.50;73.70;;;;;;5076358;28;20452;-85
2022/07/22 12:16:59;;;;;;;7.97;6.53;;;26.60;73.60;;;;;;5075994;28;20433;-84
2022/07/22 12:19:29;;;;;;;6.43;5.93;;;26.60;73.60;;;;;;5076374;28;20472;-85
2022/07/22 12:21:58;;;;;;;7.60;7.00;;;26.60;73.50;;;;;;5076150;28;20978;-84
2022/07/22 12:24:33;;;;;;;7.07;6.37;;;26.60;73.40;;;;;;5060511;28;20536;-85
2022/07/22 12:27:02;;;;;;;8.43;6.10;;;26.70;74.30;;;;;;5075829;28;20951;-84
2022/07/22 12:29:42;;;;;;;6.73;6.03;;;26.70;73.50;;;;;;5075648;28;21236;-88
2022/07/22 12:32:11;;;;;;;6.20;5.70;;;26.70;73.50;;;;;;5079031;28;20437;-89
2022/07/22 13:22:27;;;;;;;11.87;8.87;;;26.70;72.90;;;;;;5054494;28;21025;-84
2022/07/22 13:24:54;;;;;;;11.17;9.33;;;26.60;72.50;;;;;;5055098;28;20481;-87
2022/07/22 13:27:21;;;;;;;9.87;8.37;;;26.60;72.40;;;;;;5054803;28;20484;-87
2022/07/22 20:39:14;;;;;;;2.33;2.23;;;26.60;74.20;;;;;;5076278;28;20432;-86
2022/07/22 20:41:41;;;;;;;3.77;2.70;;;26.60;74.40;;;;;;5076175;28;20441;-86
2022/07/22 20:44:08;;;;;;;2.70;2.50;;;26.60;74.20;;;;;;5076256;28;20544;-87
2022/07/22 20:46:36;;;;;;;2.80;2.60;;;26.70;74.20;;;;;;5076297;28;20515;-89
2022/07/22 20:49:02;;;;;;;4.10;2.73;;;26.70;74.20;;;;;;5075910;28;20504;-89
2022/07/22 20:51:29;;;;;;;2.80;2.47;;;26.70;74.20;;;;;;5075826;28;20567;-88
2022/07/22 20:53:56;;;;;;;2.90;2.70;;;26.80;74.30;;;;;;5067862;28;20966;-89
2022/07/22 20:56:25;;;;;;;2.33;2.23;;;26.80;74.20;;;;;;5075383;28;21032;-89
2022/07/22 20:58:53;;;;;;;3.00;2.80;;;26.80;74.10;;;;;;5076060;28;20445;-90
2022/07/22 21:01:19;;;;;;;3.53;2.70;;;26.80;74.00;;;;;;5076011;28;20866;-91
2022/07/22 21:03:47;;;;;;;2.77;2.57;;;26.80;74.00;;;;;;5075663;28;20548;-90
2022/07/22 21:06:14;;;;;;;2.70;2.50;;;26.80;74.00;;;;;;5075796;28;20444;-90
2022/07/22 21:08:41;;;;;;;3.10;2.70;;;26.80;74.00;;;;;;5075585;28;20440;-88
2022/07/22 21:11:08;;;;;;;2.63;2.43;;;26.80;74.00;;;;;;5055690;28;20579;-90
2022/07/22 21:13:37;;;;;;;2.23;2.13;;;26.80;74.80;;;;;;5063986;28;20531;-90
2022/07/22 21:16:05;;;;;;;2.67;2.47;;;26.80;74.00;;;;;;5076617;28;20529;-90
2022/07/22 21:18:32;;;;;;;2.97;2.77;;;26.80;74.10;;;;;;5075660;28;20498;-92
2022/07/22 21:21:00;;;;;;;3.10;2.60;;;26.80;74.10;;;;;;5075336;28;20502;-89
2022/07/22 21:23:27;;;;;;;3.10;2.37;;;26.80;74.10;;;;;;5075274;28;20539;-88
2022/07/22 21:25:54;;;;;;;3.23;2.57;;;26.80;74.10;;;;;;5075505;28;20524;-90
2022/07/22 21:28:21;;;;;;;2.53;2.40;;;26.80;74.10;;;;;;5074980;28;20441;-93
2022/07/22 21:30:50;;;;;;;2.73;2.57;;;26.80;74.10;;;;;;5075142;28;20464;-91
2022/07/22 21:33:16;;;;;;;2.50;2.30;;;26.80;74.10;;;;;;5075408;28;20519;-91
2022/07/22 21:35:44;;;;;;;2.80;2.60;;;26.80;74.20;;;;;;5075376;28;20441;-91
2022/07/22 21:38:10;;;;;;;2.57;2.37;;;26.80;74.10;;;;;;5074843;28;20567;-91
2022/07/22 21:40:37;;;;;;;2.83;2.63;;;26.80;74.00;;;;;;5074979;28;20904;-90
2022/07/22 21:43:04;;;;;;;2.30;2.20;;;26.80;73.90;;;;;;5075087;28;20469;-90
2022/07/22 21:45:31;;;;;;;2.83;2.63;;;26.90;73.90;;;;;;5075242;28;20823;-91
2022/07/22 21:47:59;;;;;;;2.70;2.53;;;26.80;73.80;;;;;;5075044;28;20523;-92
2022/07/22 21:50:26;;;;;;;3.13;2.93;;;26.80;73.80;;;;;;5074834;28;20498;-93
2022/07/22 21:52:53;;;;;;;3.03;2.83;;;26.80;73.70;;;;;;5076332;28;20468;-94
2022/07/22 21:55:21;;;;;;;2.37;2.23;;;26.80;73.70;;;;;;5082204;28;20471;-93
2022/07/22 21:57:48;;;;;;;2.33;2.20;;;26.80;73.60;;;;;;5079640;28;20453;-92
2022/07/22 22:00:15;;;;;;;2.23;2.13;;;26.80;73.60;;;;;;5076495;28;20444;-93
2022/07/22 22:02:42;;;;;;;2.40;2.20;;;26.80;73.60;;;;;;5074932;28;20465;-93
2022/07/22 22:05:11;;;;;;;2.23;2.03;;;26.90;73.70;;;;;;5075139;28;20533;-93